createdAt,value
2022-11-19T00:01:28.496Z,10.19
2022-11-19T00:03:56.025Z,10.29
2022-11-19T00:06:25.892Z,10.29
2022-11-19T00:08:53.755Z,10.30
2022-11-19T00:12:05.375Z,10.30
2022-11-19T00:14:32.326Z,10.31
2022-11-19T00:16:59.084Z,10.31
2022-11-19T00:19:25.906Z,10.27
2022-11-19T00:21:52.673Z,10.26
2022-11-19T00:24:19.564Z,10.25
2022-11-19T00:26:46.343Z,10.29
2022-11-19T00:29:17.867Z,10.28
2022-11-19T00:31:45.058Z,10.27
2022-11-19T00:34:12.184Z,10.26
2022-11-19T00:36:39.033Z,10.24
2022-11-19T00:39:05.794Z,10.25
2022-11-19T00:41:32.628Z,10.25
2022-11-19T00:43:59.491Z,10.29
2022-11-19T00:46:30.211Z,10.23
2022-11-19T00:48:59.398Z,10.24
2022-11-19T00:51:29.875Z,10.20
2022-11-19T00:53:57.484Z,10.11
2022-11-19T00:56:26.678Z,10.25
2022-11-19T00:58:53.484Z,10.24
2022-11-19T01:01:23.241Z,10.20
2022-11-19T01:03:50.910Z,10.18
2022-11-19T01:06:21.701Z,10.18
2022-11-19T01:08:49.843Z,10.17
2022-11-19T01:11:21.066Z,10.16
2022-11-19T01:13:48.775Z,10.19
2022-11-19T01:16:22.193Z,10.13
2022-11-19T01:18:51.193Z,10.14
2022-11-19T01:21:20.591Z,10.16
2022-11-19T01:23:48.060Z,10.17
2022-11-19T01:26:16.059Z,10.21
2022-11-19T01:28:44.054Z,10.19
2022-11-19T01:31:15.038Z,10.20
2022-11-19T01:33:42.157Z,10.17
2022-11-19T01:36:15.009Z,10.17
2022-11-19T01:38:42.052Z,10.14
2022-11-19T01:41:09.405Z,10.15
2022-11-19T01:43:58.917Z,10.17
2022-11-19T01:46:29.247Z,10.15
2022-11-19T01:49:02.710Z,10.12
2022-11-19T01:51:45.999Z,10.10
2022-11-19T01:54:28.177Z,10.03
2022-11-19T01:57:00.261Z,10.12
2022-11-19T01:59:29.691Z,10.08
2022-11-19T02:01:56.911Z,10.09
2022-11-19T02:04:25.484Z,10.07
2022-11-19T02:06:53.766Z,10.12
2022-11-19T02:09:22.288Z,10.15
2022-11-19T02:12:19.189Z,10.12
2022-11-19T02:15:29.700Z,10.12
2022-11-19T02:18:42.655Z,10.12
2022-11-19T02:21:22.730Z,10.15
2022-11-19T02:23:57.552Z,10.00
2022-11-19T02:26:46.027Z,10.10
2022-11-19T02:29:30.746Z,10.11
2022-11-19T02:32:12.824Z,10.10
2022-11-19T02:34:52.780Z,10.11
2022-11-19T02:37:23.063Z,10.12
2022-11-19T02:40:03.575Z,10.10
2022-11-19T02:42:53.821Z,10.11
2022-11-19T02:45:35.570Z,10.00
2022-11-19T02:48:23.783Z,10.07
2022-11-19T02:50:54.288Z,10.08
2022-11-19T02:53:23.487Z,10.00
2022-11-19T02:56:08.612Z,10.06
2022-11-19T02:59:07.851Z,10.07
2022-11-19T03:01:58.121Z,10.05
2022-11-19T03:04:29.909Z,10.04
2022-11-19T03:07:08.533Z,10.04
2022-11-19T03:09:42.265Z,10.06
2022-11-19T03:12:50.287Z,10.08
2022-11-19T03:15:44.587Z,10.10
2022-11-19T03:18:33.038Z,10.02
2022-11-19T03:21:21.296Z,10.02
2022-11-19T03:23:55.313Z,10.04
2022-11-19T03:26:30.395Z,10.07
2022-11-19T03:29:02.882Z,10.06
2022-11-19T03:31:31.650Z,10.06
2022-11-19T03:34:04.114Z,10.07
2022-11-19T03:36:35.854Z,10.07
2022-11-19T03:39:07.503Z,10.11
2022-11-19T03:41:37.938Z,10.00
2022-11-19T03:44:27.122Z,10.09
2022-11-19T03:47:04.919Z,10.09
2022-11-19T03:49:40.463Z,10.08
2022-11-19T03:52:18.461Z,10.08
2022-11-19T03:54:45.693Z,10.04
2022-11-19T03:57:18.292Z,10.08
2022-11-19T03:59:46.929Z,10.09
2022-11-19T04:02:14.946Z,10.10
2022-11-19T04:04:41.805Z,10.11
2022-11-19T04:07:12.164Z,10.06
2022-11-19T04:09:40.803Z,10.05
2022-11-19T04:12:15.116Z,10.05
2022-11-19T04:14:41.893Z,10.10
2022-11-19T04:17:08.710Z,10.08
2022-11-19T04:19:35.490Z,10.09
2022-11-19T04:22:02.321Z,10.14
2022-11-19T04:24:29.287Z,10.12
2022-11-19T04:26:56.076Z,10.12
2022-11-19T04:29:22.938Z,10.10
2022-11-19T04:31:49.770Z,10.02
2022-11-19T04:34:16.629Z,10.12
2022-11-19T04:36:43.481Z,10.15
2022-11-19T04:39:12.329Z,10.11
2022-11-19T04:41:40.702Z,10.10
2022-11-19T04:44:07.677Z,10.03
2022-11-19T04:46:34.907Z,10.11
2022-11-19T04:49:02.487Z,10.11
2022-11-19T04:51:29.328Z,10.11
2022-11-19T04:53:56.258Z,10.13
2022-11-19T04:56:23.036Z,10.13
2022-11-19T04:58:49.816Z,10.13
2022-11-19T05:01:16.709Z,10.08
2022-11-19T05:03:43.502Z,10.05
2022-11-19T05:06:10.324Z,10.09
2022-11-19T05:08:37.183Z,10.10
2022-11-19T05:11:04.078Z,10.07
2022-11-19T05:13:30.880Z,10.04
2022-11-19T05:15:57.684Z,10.09
2022-11-19T05:18:24.650Z,10.02
2022-11-19T05:20:51.745Z,10.01
2022-11-19T05:23:18.621Z,10.07
2022-11-19T05:25:45.432Z,9.97
2022-11-19T05:28:12.195Z,9.96
2022-11-19T05:30:38.980Z,10.04
2022-11-19T05:33:05.784Z,10.02
2022-11-19T05:35:32.619Z,9.86
2022-11-19T05:37:59.438Z,9.93
2022-11-19T05:40:26.228Z,9.92
2022-11-19T05:42:53.033Z,9.92
2022-11-19T05:45:19.899Z,9.87
2022-11-19T05:47:48.787Z,10.00
2022-11-19T05:50:16.398Z,9.99
2022-11-19T05:52:43.213Z,9.98
2022-11-19T05:55:09.962Z,10.01
2022-11-19T05:57:37.059Z,10.01
2022-11-19T06:00:05.437Z,9.92
2022-11-19T06:02:32.328Z,9.96
2022-11-19T06:04:59.187Z,9.92
2022-11-19T06:07:26.051Z,9.92
2022-11-19T06:09:52.991Z,9.94
2022-11-19T06:12:19.930Z,9.94
2022-11-19T06:14:46.723Z,9.97
2022-11-19T06:17:13.493Z,9.97
2022-11-19T06:19:40.740Z,10.00
2022-11-19T06:22:07.539Z,9.94
2022-11-19T06:24:34.357Z,9.89
2022-11-19T06:27:01.407Z,9.90
2022-11-19T06:29:28.314Z,9.88
2022-11-19T06:31:55.131Z,9.97
2022-11-19T06:34:22.023Z,9.86
2022-11-19T06:36:50.752Z,9.93
2022-11-19T06:39:18.934Z,9.96
2022-11-19T06:41:48.554Z,9.95
2022-11-19T06:44:15.417Z,10.00
2022-11-19T06:46:42.159Z,9.99
2022-11-19T06:49:12.192Z,9.99
2022-11-19T06:51:41.125Z,9.93
2022-11-19T06:54:08.020Z,9.94
2022-11-19T06:56:34.838Z,9.95
2022-11-19T06:59:01.765Z,9.92
2022-11-19T07:01:28.752Z,9.94
2022-11-19T07:03:55.502Z,9.95
2022-11-19T07:06:22.245Z,9.95
2022-11-19T07:08:48.993Z,9.96
2022-11-19T07:11:27.595Z,9.97
2022-11-19T07:13:57.314Z,9.97
2022-11-19T07:16:32.068Z,9.99
2022-11-19T07:19:05.301Z,10.02
2022-11-19T07:21:32.710Z,9.97
2022-11-19T07:24:01.637Z,9.99
2022-11-19T07:26:28.469Z,9.99
2022-11-19T07:28:55.349Z,9.94
2022-11-19T07:31:22.383Z,9.99
2022-11-19T07:33:49.156Z,10.01
2022-11-19T07:36:18.636Z,10.01
2022-11-19T07:38:47.011Z,10.00
2022-11-19T07:41:32.831Z,10.00
2022-11-19T07:43:59.716Z,9.98
2022-11-19T07:46:26.578Z,9.97
2022-11-19T07:48:57.823Z,9.86
2022-11-19T07:51:25.145Z,9.96
2022-11-19T07:53:52.350Z,10.01
2022-11-19T07:56:19.473Z,10.00
2022-11-19T07:58:46.581Z,10.01
2022-11-19T08:01:18.335Z,10.01
2022-11-19T08:03:51.876Z,9.96
2022-11-19T08:06:23.713Z,9.96
2022-11-19T08:08:50.625Z,9.95
2022-11-19T08:11:18.776Z,9.94
2022-11-19T08:13:45.690Z,9.91
2022-11-19T08:16:38.676Z,9.95
2022-11-19T08:19:11.394Z,10.02
2022-11-19T08:21:43.334Z,10.03
2022-11-19T08:24:11.219Z,9.93
2022-11-19T08:26:38.925Z,10.06
2022-11-19T08:29:05.966Z,10.10
2022-11-19T08:31:33.109Z,10.09
2022-11-19T08:34:02.512Z,10.06
2022-11-19T08:36:29.566Z,10.09
2022-11-19T08:39:00.975Z,10.02
2022-11-19T08:41:46.451Z,9.95
2022-11-19T08:44:13.621Z,9.92
2022-11-19T08:46:41.125Z,9.90
2022-11-19T08:49:08.282Z,9.87
2022-11-19T08:51:35.322Z,10.01
2022-11-19T08:54:02.182Z,10.01
2022-11-19T08:56:29.210Z,10.04
2022-11-19T08:59:02.268Z,10.07
2022-11-19T09:01:30.557Z,10.08
2022-11-19T09:03:57.472Z,10.08
2022-11-19T09:06:24.307Z,10.12
2022-11-19T09:08:51.251Z,10.13
2022-11-19T09:11:20.287Z,10.19
2022-11-19T09:13:47.176Z,10.22
2022-11-19T09:16:14.423Z,10.23
2022-11-19T09:18:42.356Z,10.24
2022-11-19T09:21:12.168Z,10.22
2022-11-19T09:23:39.861Z,10.13
2022-11-19T09:26:13.430Z,10.31
2022-11-19T09:28:41.240Z,10.31
2022-11-19T09:31:12.006Z,10.26
2022-11-19T09:33:44.328Z,10.26
2022-11-19T09:36:12.457Z,10.29
2022-11-19T09:38:40.824Z,10.28
2022-11-19T09:41:28.153Z,10.32
2022-11-19T09:44:33.257Z,10.41
2022-11-19T09:47:21.765Z,10.44
2022-11-19T09:50:26.743Z,10.48
2022-11-19T09:53:16.784Z,10.43
2022-11-19T09:55:47.163Z,10.49
2022-11-19T09:58:36.431Z,10.53
2022-11-19T10:01:03.891Z,10.51
2022-11-19T10:03:33.867Z,10.53
2022-11-19T10:06:24.160Z,10.51
2022-11-19T10:09:49.909Z,10.50
2022-11-19T10:12:50.348Z,10.54
2022-11-19T10:15:24.709Z,10.53
2022-11-19T10:18:24.859Z,10.57
2022-11-19T10:21:12.706Z,10.55
2022-11-19T10:23:50.000Z,10.60
2022-11-19T10:26:19.471Z,10.57
2022-11-19T10:28:55.649Z,10.58
2022-11-19T10:31:36.178Z,10.58
2022-11-19T10:34:29.556Z,10.62
2022-11-19T10:37:11.096Z,10.62
2022-11-19T10:39:57.368Z,10.57
2022-11-19T10:42:33.973Z,10.55
2022-11-19T10:45:19.648Z,10.61
2022-11-19T10:48:10.169Z,10.63
2022-11-19T10:50:37.106Z,10.62
2022-11-19T10:53:29.090Z,10.60
2022-11-19T10:56:13.555Z,10.63
2022-11-19T10:58:47.343Z,10.67
2022-11-19T11:01:33.236Z,10.68
2022-11-19T11:04:27.386Z,10.68
2022-11-19T11:06:54.075Z,10.71
2022-11-19T11:09:41.373Z,10.66
2022-11-19T11:12:41.731Z,10.64
2022-11-19T11:15:22.698Z,10.68
2022-11-19T11:18:05.450Z,10.66
2022-11-19T11:20:33.149Z,10.66
2022-11-19T11:23:17.665Z,10.62
2022-11-19T11:26:12.653Z,10.69
2022-11-19T11:29:20.066Z,10.73
2022-11-19T11:31:47.870Z,10.73
2022-11-19T11:34:32.815Z,10.75
2022-11-19T11:37:02.686Z,10.74
2022-11-19T11:39:38.049Z,10.73
2022-11-19T11:42:16.045Z,10.80
2022-11-19T11:45:00.502Z,10.75
2022-11-19T11:47:33.610Z,10.80
2022-11-19T11:50:14.446Z,10.64
2022-11-19T11:52:45.289Z,10.72
2022-11-19T11:55:29.690Z,10.72
2022-11-19T11:58:24.154Z,10.66
2022-11-19T12:00:55.827Z,10.58
2022-11-19T12:03:22.829Z,10.53
2022-11-19T12:06:07.646Z,10.60
2022-11-19T12:08:47.431Z,10.57
2022-11-19T12:11:28.127Z,10.65
2022-11-19T12:14:09.625Z,10.66
2022-11-19T12:17:18.943Z,10.68
2022-11-19T12:20:25.576Z,10.66
2022-11-19T12:23:10.399Z,10.67
2022-11-19T12:25:55.562Z,10.65
2022-11-19T12:29:02.336Z,10.56
2022-11-19T12:32:12.387Z,10.53
2022-11-19T12:35:00.820Z,10.54
2022-11-19T12:38:08.891Z,10.56
2022-11-19T12:41:02.980Z,10.56
2022-11-19T12:43:48.300Z,10.53
2022-11-19T12:46:50.767Z,10.54
2022-11-19T12:49:44.223Z,10.55
2022-11-19T12:52:41.293Z,10.59
2022-11-19T12:55:45.761Z,10.47
2022-11-19T12:58:50.243Z,10.69
2022-11-19T13:01:21.757Z,10.73
2022-11-19T13:04:14.695Z,10.65
2022-11-19T13:06:56.130Z,10.59
2022-11-19T13:09:35.697Z,10.81
2022-11-19T13:12:19.655Z,10.78
2022-11-19T13:15:05.857Z,10.83
2022-11-19T13:17:35.281Z,10.83
2022-11-19T13:20:21.700Z,10.77
2022-11-19T13:22:53.336Z,10.91
2022-11-19T13:25:36.087Z,10.90
2022-11-19T13:28:12.237Z,10.91
2022-11-19T13:30:42.714Z,10.91
2022-11-19T13:33:34.258Z,10.82
2022-11-19T13:36:22.678Z,10.86
2022-11-19T13:39:03.229Z,10.86
2022-11-19T13:42:07.665Z,10.86
2022-11-19T13:44:41.016Z,10.80
2022-11-19T13:47:12.918Z,10.77
2022-11-19T13:49:57.213Z,10.75
2022-11-19T13:52:44.256Z,10.67
2022-11-19T13:55:44.815Z,10.70
2022-11-19T13:58:14.370Z,10.73
2022-11-19T14:01:06.766Z,10.78
2022-11-19T14:03:49.705Z,10.82
2022-11-19T14:06:25.193Z,10.85
2022-11-19T14:09:34.789Z,10.87
2022-11-19T14:12:11.695Z,10.91
2022-11-19T14:16:05.737Z,10.92
2022-11-19T14:19:01.630Z,10.92
2022-11-19T14:21:46.840Z,10.93
2022-11-19T14:24:44.153Z,10.93
2022-11-19T14:27:49.310Z,10.94
2022-11-19T14:30:20.211Z,10.95
2022-11-19T14:32:52.871Z,10.95
2022-11-19T14:35:35.433Z,10.98
2022-11-19T14:38:28.573Z,10.96
2022-11-19T14:41:33.117Z,10.96
2022-11-19T14:44:24.695Z,10.98
2022-11-19T14:46:51.579Z,10.97
2022-11-19T14:49:35.865Z,11.00
2022-11-19T14:52:03.480Z,10.96
2022-11-19T14:54:43.275Z,11.01
2022-11-19T14:57:28.025Z,11.01
2022-11-19T15:00:06.099Z,11.00
2022-11-19T15:02:45.579Z,10.98
2022-11-19T15:05:34.314Z,11.02
2022-11-19T15:08:19.558Z,11.01
2022-11-19T15:11:06.597Z,11.01
2022-11-19T15:13:40.580Z,11.00
2022-11-19T15:16:26.226Z,10.92
2022-11-19T15:19:30.751Z,10.92
2022-11-19T15:22:15.266Z,10.92
2022-11-19T15:25:04.186Z,10.86
2022-11-19T15:27:52.391Z,10.80
2022-11-19T15:30:44.520Z,10.78
2022-11-19T15:33:53.568Z,10.83
2022-11-19T15:36:40.353Z,10.85
2022-11-19T15:39:35.155Z,10.78
2022-11-19T15:42:11.852Z,10.78
2022-11-19T15:44:59.093Z,10.80
2022-11-19T15:48:10.394Z,10.81
2022-11-19T15:50:37.610Z,10.67
2022-11-19T15:53:21.341Z,10.61
2022-11-19T15:56:07.363Z,10.54
2022-11-19T15:58:52.803Z,10.54
2022-11-19T16:01:21.759Z,10.46
2022-11-19T16:03:52.443Z,10.29
2022-11-19T16:06:27.103Z,10.54
2022-11-19T16:08:57.085Z,10.62
2022-11-19T16:11:48.481Z,10.58
2022-11-19T16:14:46.152Z,10.69
2022-11-19T16:17:43.540Z,10.76
2022-11-19T16:20:10.969Z,10.78
2022-11-19T16:22:44.042Z,10.78
2022-11-19T16:25:22.374Z,10.83
2022-11-19T16:27:49.173Z,10.81
2022-11-19T16:30:25.075Z,10.74
2022-11-19T16:32:52.243Z,10.82
2022-11-19T16:35:31.394Z,10.85
2022-11-19T16:38:00.766Z,10.87
2022-11-19T16:40:48.753Z,10.88
2022-11-19T16:43:16.703Z,10.87
2022-11-19T16:45:46.648Z,10.89
2022-11-19T16:48:50.666Z,10.86
2022-11-19T16:51:37.522Z,10.75
2022-11-19T16:54:10.499Z,10.70
2022-11-19T16:56:44.575Z,10.71
2022-11-19T16:59:23.750Z,10.68
2022-11-19T17:02:00.115Z,10.63
2022-11-19T17:04:31.350Z,10.59
2022-11-19T17:06:59.579Z,10.56
2022-11-19T17:09:41.425Z,10.56
2022-11-19T17:12:28.798Z,10.53
2022-11-19T17:15:01.680Z,10.52
2022-11-19T17:17:40.512Z,10.52
2022-11-19T17:20:33.034Z,10.41
2022-11-19T17:23:02.041Z,10.28
2022-11-19T17:25:28.907Z,10.32
2022-11-19T17:27:57.809Z,10.25
2022-11-19T17:30:33.640Z,10.20
2022-11-19T17:33:04.191Z,10.18
2022-11-19T17:35:43.395Z,10.21
2022-11-19T17:38:20.124Z,10.24
2022-11-19T17:40:51.025Z,10.20
2022-11-19T17:43:42.243Z,10.15
2022-11-19T17:46:09.616Z,10.14
2022-11-19T17:48:41.697Z,10.12
2022-11-19T17:51:23.470Z,10.18
2022-11-19T17:53:52.172Z,10.17
2022-11-19T17:56:26.828Z,10.15
2022-11-19T17:58:54.619Z,10.05
2022-11-19T18:01:22.326Z,9.95
2022-11-19T18:03:49.512Z,9.95
2022-11-19T18:06:17.677Z,9.96
2022-11-19T18:08:45.063Z,9.84
2022-11-19T18:11:15.944Z,9.80
2022-11-19T18:13:45.387Z,9.79
2022-11-19T18:16:21.826Z,9.75
2022-11-19T18:18:49.201Z,9.73
2022-11-19T18:21:20.074Z,9.77
2022-11-19T18:23:48.918Z,9.78
2022-11-19T18:26:19.136Z,9.74
2022-11-19T18:28:48.851Z,9.72
2022-11-19T18:31:22.845Z,9.59
2022-11-19T18:33:50.490Z,9.65
2022-11-19T18:36:17.770Z,9.74
2022-11-19T18:38:44.900Z,9.75
2022-11-19T18:41:13.728Z,9.77
2022-11-19T18:43:59.857Z,9.83
2022-11-19T18:46:26.725Z,9.85
2022-11-19T18:48:53.793Z,9.90
2022-11-19T18:51:21.415Z,9.90
2022-11-19T18:53:48.294Z,9.87
2022-11-19T18:56:16.465Z,9.88
2022-11-19T18:58:43.393Z,9.87
2022-11-19T19:01:11.175Z,9.94
2022-11-19T19:03:38.039Z,9.90
2022-11-19T19:06:07.645Z,9.84
2022-11-19T19:08:34.819Z,9.91
2022-11-19T19:11:25.257Z,9.93
2022-11-19T19:13:52.457Z,9.92
2022-11-19T19:16:19.237Z,9.95
2022-11-19T19:18:46.010Z,9.96
2022-11-19T19:21:15.219Z,10.00
2022-11-19T19:23:42.174Z,9.97
2022-11-19T19:26:10.300Z,9.94
2022-11-19T19:28:37.718Z,9.90
2022-11-19T19:31:05.705Z,9.87
2022-11-19T19:33:32.657Z,9.91
2022-11-19T19:36:01.575Z,9.87
2022-11-19T19:38:28.409Z,9.94
2022-11-19T19:40:55.173Z,9.88
2022-11-19T19:43:21.923Z,9.81
2022-11-19T19:45:49.161Z,9.79
2022-11-19T19:48:16.037Z,9.76
2022-11-19T19:50:50.921Z,9.68
2022-11-19T19:53:17.699Z,9.60
2022-11-19T19:55:44.493Z,9.68
2022-11-19T19:58:11.284Z,9.66
2022-11-19T20:00:38.048Z,9.67
2022-11-19T20:03:04.826Z,9.68
2022-11-19T20:05:31.608Z,9.71
2022-11-19T20:07:58.391Z,9.73
2022-11-19T20:10:25.154Z,9.68
2022-11-19T20:13:10.354Z,9.72
2022-11-19T20:15:38.508Z,9.72
2022-11-19T20:18:05.531Z,9.77
2022-11-19T20:20:33.069Z,9.77
2022-11-19T20:22:59.837Z,9.79
2022-11-19T20:25:26.618Z,9.80
2022-11-19T20:27:53.381Z,9.81
2022-11-19T20:30:20.156Z,9.67
2022-11-19T20:32:48.567Z,9.84
2022-11-19T20:35:15.447Z,9.83
2022-11-19T20:37:42.186Z,9.87
2022-11-19T20:40:10.314Z,9.81
2022-11-19T20:42:55.997Z,9.79
2022-11-19T20:45:22.767Z,9.81
2022-11-19T20:47:49.525Z,9.82
2022-11-19T20:50:17.301Z,9.86
2022-11-19T20:52:44.065Z,9.87
2022-11-19T20:55:10.902Z,9.86
2022-11-19T20:57:37.646Z,9.88
2022-11-19T21:00:05.411Z,9.81
2022-11-19T21:02:32.278Z,9.87
2022-11-19T21:04:59.488Z,9.88
2022-11-19T21:07:26.299Z,9.89
2022-11-19T21:09:53.215Z,9.87
2022-11-19T21:12:19.981Z,9.93
2022-11-19T21:14:46.835Z,9.90
2022-11-19T21:17:13.596Z,9.90
2022-11-19T21:19:40.415Z,9.93
2022-11-19T21:22:07.180Z,9.92
2022-11-19T21:24:33.986Z,9.91
2022-11-19T21:27:00.758Z,9.93
2022-11-19T21:29:27.638Z,9.92
2022-11-19T21:31:55.448Z,9.92
2022-11-19T21:34:22.198Z,9.91
2022-11-19T21:36:49.923Z,9.89
2022-11-19T21:39:18.654Z,9.83
2022-11-19T21:41:45.798Z,9.92
2022-11-19T21:44:16.827Z,9.90
2022-11-19T21:46:47.737Z,9.87
2022-11-19T21:49:14.561Z,9.90
2022-11-19T21:51:41.391Z,9.86
2022-11-19T21:54:08.364Z,9.90
2022-11-19T21:56:38.527Z,9.87
2022-11-19T21:59:07.214Z,9.91
2022-11-19T22:01:34.170Z,9.86
2022-11-19T22:04:00.947Z,9.89
2022-11-19T22:06:30.350Z,9.91
2022-11-19T22:08:57.173Z,9.89
2022-11-19T22:11:29.858Z,9.86
2022-11-19T22:14:03.500Z,9.86
2022-11-19T22:16:33.291Z,9.83
2022-11-19T22:19:00.376Z,9.82
2022-11-19T22:21:28.901Z,9.83
2022-11-19T22:23:55.763Z,9.81
2022-11-19T22:26:22.510Z,9.86
2022-11-19T22:28:49.673Z,9.85
2022-11-19T22:31:16.501Z,9.83
2022-11-19T22:33:43.359Z,9.82
2022-11-19T22:36:11.490Z,9.81
2022-11-19T22:38:39.289Z,9.80
2022-11-19T22:41:09.802Z,9.78
2022-11-19T22:43:37.307Z,9.79
2022-11-19T22:46:04.966Z,9.75
2022-11-19T22:48:32.977Z,9.82
2022-11-19T22:51:05.235Z,9.79
2022-11-19T22:53:34.409Z,9.75
2022-11-19T22:56:02.423Z,9.89
2022-11-19T22:58:29.599Z,9.74
2022-11-19T23:00:56.557Z,9.72
2022-11-19T23:03:23.452Z,9.75
2022-11-19T23:05:54.353Z,9.74
2022-11-19T23:08:21.802Z,9.59
2022-11-19T23:10:48.851Z,9.65
2022-11-19T23:13:32.267Z,9.66
2022-11-19T23:16:16.269Z,9.69
2022-11-19T23:18:47.640Z,9.71
2022-11-19T23:21:18.821Z,9.72
2022-11-19T23:23:46.142Z,9.73
2022-11-19T23:26:15.923Z,9.70
2022-11-19T23:28:44.653Z,9.69
2022-11-19T23:31:25.747Z,9.67
2022-11-19T23:33:58.763Z,9.62
2022-11-19T23:36:32.511Z,9.66
2022-11-19T23:38:59.887Z,9.70
2022-11-19T23:41:27.898Z,9.70
2022-11-19T23:43:55.867Z,9.60
2022-11-19T23:46:32.639Z,9.58
2022-11-19T23:49:00.321Z,9.55
2022-11-19T23:51:33.384Z,9.50
2022-11-19T23:54:00.623Z,9.21
2022-11-19T23:56:30.054Z,9.51
2022-11-19T23:58:57.202Z,9.48
